Main page
METAR-TAF:

METAR-TAF

Airports :

Joliet Regional Airport

Joliet, Illinois, United States

latitude: 41-31-05N, longitude: 088-10-31W, elevation: 581 ft

Current weather observation

The report was made 25 minutes ago, at 19:35 UTC
Wind 10 mph from the North/Northeast
Temperature 50°F
Humidity 53%
Pressure 30.28 in. Hg
Visibility: 10 miles
Clear sky

METAR: KJOT 241935Z AUTO 03009KT 10SM CLR 10/01 A3028 RMK AO2 T01020010

Time: 15:00 (20:00 UTC)


TAF: missing

Weather observations and forecasts of more than 4000 airports (METAR and TAF reports).

The available stations are represented by yellow and red dots on the map.

Hover mouse over dot to see the name of the station.

Then click to see weather observations and forecasts.

To change the map : click on the green buttons with a black cross to zoom in, on the green button with a dash to zoom out, or on the green arrows for adjacent maps.


METAR-TAF: